Time;durP1;ratioP1;P1;durP2;ratioP2;P2;SDS_P1;SDS_P2;PMS_P1;PMS_P2;Temp;Humidity;BMP_temperature;BMP_pressure;BME280_temperature;BME280_humidity;BME280_pressure;Samples;Min_cycle;Max_cycle;Signal;HPM_P1;HPM_P2
2022/09/19 00:01:43;;;;;;;0.77;0.70;;;;;;;7.18;100.00;99943.72;5040272;28;20584;-74
2022/09/19 00:04:17;;;;;;;0.70;0.70;;;;;;;7.24;100.00;99947.06;5045913;28;20207;-74
2022/09/19 00:06:45;;;;;;;0.90;0.80;;;;;;;7.22;100.00;99948.84;5044307;28;20203;-74
2022/09/19 00:09:14;;;;;;;0.73;0.70;;;;;;;7.21;100.00;99950.56;5042865;28;20199;-74
2022/09/19 00:11:44;;;;;;;2.43;0.87;;;;;;;7.14;100.00;99947.28;5042530;28;20234;-74
2022/09/19 00:14:13;;;;;;;2.50;1.00;;;;;;;7.27;100.00;99957.38;5040105;28;20193;-73
2022/09/19 00:16:44;;;;;;;0.83;0.83;;;;;;;7.24;100.00;99966.06;5042948;28;20194;-74
2022/09/19 00:19:14;;;;;;;0.80;0.80;;;;;;;7.26;100.00;99959.09;5037916;28;20352;-73
2022/09/19 00:21:42;;;;;;;1.03;0.80;;;;;;;7.27;100.00;99954.78;5037305;28;20729;-74
2022/09/19 00:26:56;;;;;;;2.50;1.10;;;;;;;7.25;100.00;99965.19;5045237;28;20193;-74
2022/09/19 00:29:24;;;;;;;1.20;1.10;;;;;;;7.29;100.00;99969.41;5037824;28;20293;-73
2022/09/19 00:31:52;;;;;;;1.53;1.30;;;;;;;7.37;100.00;99962.31;5029712;28;20215;-74
2022/09/19 00:34:21;;;;;;;2.17;1.20;;;;;;;7.42;100.00;99966.50;5018883;28;20200;-74
2022/09/19 00:36:48;;;;;;;1.80;1.27;;;;;;;7.28;100.00;99959.94;5037120;28;20189;-73
2022/09/19 00:39:17;;;;;;;1.40;1.30;;;;;;;7.38;100.00;99961.41;5021403;28;20300;-73
2022/09/19 00:41:44;;;;;;;1.20;1.10;;;;;;;7.38;100.00;99960.56;5023198;28;20227;-73
2022/09/19 00:44:45;;;;;;;2.80;1.37;;;;;;;7.36;100.00;99963.19;5039879;28;20216;-73
2022/09/19 00:47:14;;;;;;;3.23;1.60;;;;;;;7.26;100.00;99959.09;5034977;28;20586;-74
2022/09/19 00:49:48;;;;;;;4.17;1.23;;;;;;;7.39;100.00;99963.09;5022992;28;20204;-73
2022/09/19 00:52:19;;;;;;;1.87;1.50;;;;;;;7.36;100.00;99963.19;5020591;28;20242;-73
2022/09/19 00:54:49;;;;;;;1.40;1.30;;;;;;;7.34;100.00;99964.13;5026230;28;20278;-73
2022/09/19 00:57:17;;;;;;;1.43;1.33;;;;;;;7.51;100.00;99961.09;5025748;28;20701;-73
2022/09/19 00:59:48;;;;;;;2.10;1.73;;;;;;;7.40;100.00;99961.34;5036370;28;20190;-73
2022/09/19 01:02:18;;;;;;;1.63;1.47;;;;;;;7.32;100.00;99963.31;5017437;28;20219;-73
2022/09/19 01:04:46;;;;;;;1.70;1.60;;;;;;;7.42;100.00;99967.34;5038026;28;20628;-73
2022/09/19 01:07:24;;;;;;;1.40;1.30;;;;;;;7.33;100.00;99968.44;5025406;28;20264;-73
2022/09/19 01:09:58;;;;;;;1.80;1.40;;;;;;;7.42;100.00;99969.09;5022156;28;20212;-73
2022/09/19 01:12:37;;;;;;;1.83;1.30;;;;;;;7.44;100.00;99967.31;5039158;28;20652;-73
2022/09/19 01:15:32;;;;;;;1.70;1.60;;;;;;;7.39;100.00;99970.88;5021820;28;20205;-73
2022/09/19 01:18:01;;;;;;;1.53;1.43;;;;;;;7.42;100.00;99976.88;5036975;28;20197;-73
2022/09/19 01:20:54;;;;;;;3.90;1.80;;;;;;;7.41;100.00;99970.84;5040143;28;20216;-74
2022/09/19 01:23:39;;;;;;;2.23;1.50;;;;;;;7.44;100.00;99975.97;5041291;28;20326;-73
2022/09/19 01:26:20;;;;;;;4.67;1.33;;;;;;;7.52;100.00;99983.56;5017787;28;20232;-74
2022/09/19 01:28:55;;;;;;;1.93;1.83;;;;;;;7.43;100.00;99979.44;5020327;28;20210;-73
2022/09/19 01:31:27;;;;;;;1.50;1.40;;;;;;;7.39;100.00;99989.03;5024701;28;20274;-74
2022/09/19 01:34:02;;;;;;;3.43;1.60;;;;;;;7.47;100.00;99980.22;5022280;28;20201;-73
2022/09/19 01:36:35;;;;;;;2.40;1.80;;;;;;;7.41;100.00;99976.03;5036010;28;20284;-72
2022/09/19 01:39:05;;;;;;;3.73;1.57;;;;;;;7.51;100.00;99976.66;5019545;28;20212;-73
2022/09/19 01:41:37;;;;;;;3.77;1.70;;;;;;;7.56;100.00;99982.59;5023799;28;20225;-72
2022/09/19 01:44:16;;;;;;;3.23;1.53;;;;;;;7.49;100.00;99981.91;5022588;28;20223;-72
2022/09/19 01:46:53;;;;;;;1.40;1.30;;;;;;;7.47;100.00;99982.81;5022232;28;20203;-73
2022/09/19 01:49:31;;;;;;;1.67;1.57;;;;;;;7.55;100.00;99980.91;5017760;28;20198;-73
2022/09/19 01:52:05;;;;;;;2.33;1.70;;;;;;;7.58;100.00;99991.19;5018681;28;20225;-73
2022/09/19 01:54:44;;;;;;;1.93;1.70;;;;;;;7.55;100.00;99988.69;5021790;28;20202;-73
2022/09/19 01:57:29;;;;;;;2.63;1.67;;;;;;;7.55;100.00;99993.88;5019672;28;20206;-73
2022/09/19 02:00:07;;;;;;;1.60;1.43;;;;;;;7.57;100.00;99989.50;5034807;28;20199;-73
2022/09/19 02:02:50;;;;;;;2.00;1.80;;;;;;;7.49;100.00;99996.59;5039616;28;20198;-73
2022/09/19 02:05:28;;;;;;;1.50;1.40;;;;;;;7.52;100.00;99992.19;5019610;28;20199;-73
2022/09/19 02:08:03;;;;;;;3.57;1.83;;;;;;;7.53;100.00;99995.66;5018756;28;20223;-73
2022/09/19 02:10:37;;;;;;;2.10;1.90;;;;;;;7.49;100.00;100000.06;5035437;28;20223;-76
2022/09/19 02:13:08;;;;;;;1.80;1.70;;;;;;;7.48;100.00;100007.88;5021399;28;20245;-74
2022/09/19 02:16:07;;;;;;;1.80;1.70;;;;;;;7.53;100.00;100001.69;5042010;28;20606;-76
2022/09/19 02:18:39;;;;;;;3.37;1.90;;;;;;;7.56;100.00;100016.31;5041249;28;20202;-74
2022/09/19 02:21:10;;;;;;;1.63;1.53;;;;;;;7.47;100.00;100008.75;5025525;28;20222;-76
2022/09/19 02:23:41;;;;;;;2.23;1.50;;;;;;;7.47;100.00;100014.78;5037881;28;20219;-72
2022/09/19 02:26:09;;;;;;;2.40;1.73;;;;;;;7.52;100.00;100012.09;5020520;28;20328;-73
2022/09/19 02:28:41;;;;;;;2.10;1.73;;;;;;;7.53;100.00;100004.28;5021604;28;20188;-73
2022/09/19 02:31:13;;;;;;;1.50;1.40;;;;;;;7.63;100.00;100011.84;5020852;28;20219;-73
2022/09/19 02:33:44;;;;;;;2.10;1.93;;;;;;;7.62;100.00;100007.56;5024693;28;20293;-73
2022/09/19 02:36:17;;;;;;;2.20;2.00;;;;;;;7.59;100.00;100019.69;5017378;28;20199;-72
2022/09/19 02:38:50;;;;;;;4.67;2.03;;;;;;;7.62;100.00;100010.16;5025582;28;20253;-73
2022/09/19 02:41:30;;;;;;;2.47;2.23;;;;;;;7.64;100.00;100019.59;5023205;28;20296;-73
2022/09/19 02:44:03;;;;;;;4.03;2.37;;;;;;;7.57;100.00;100016.28;5039153;28;20224;-73
2022/09/19 02:46:39;;;;;;;2.30;2.10;;;;;;;7.61;100.00;100022.25;5021364;28;20204;-73
2022/09/19 02:49:09;;;;;;;2.93;2.30;;;;;;;7.53;100.00;100017.25;5022509;28;20586;-73
2022/09/19 02:51:38;;;;;;;4.87;2.57;;;;;;;7.57;100.00;100020.63;5022483;28;20212;-73
2022/09/19 02:54:12;;;;;;;3.60;2.27;;;;;;;7.55;100.00;100028.44;5022471;28;20583;-73
2022/09/19 02:56:41;;;;;;;3.20;2.87;;;;;;;7.59;100.00;100024.88;5029017;28;20206;-73
2022/09/19 02:59:13;;;;;;;2.80;2.47;;;;;;;7.65;100.00;100021.31;5028133;28;20201;-73
2022/09/19 03:01:54;;;;;;;2.93;2.40;;;;;;;7.65;100.00;100031.69;5022103;28;20229;-72
2022/09/19 03:04:29;;;;;;;3.70;2.37;;;;;;;7.63;100.00;100025.66;5037057;28;20256;-73
2022/09/19 03:07:02;;;;;;;4.00;2.63;;;;;;;7.65;100.00;100031.69;5024902;28;20202;-73
2022/09/19 03:09:31;;;;;;;4.80;2.50;;;;;;;7.67;100.00;100031.63;5017720;28;20200;-73
2022/09/19 03:12:06;;;;;;;4.10;3.07;;;;;;;7.71;100.00;100033.28;5018699;28;20702;-73
2022/09/19 03:14:35;;;;;;;3.37;2.87;;;;;;;7.73;100.00;100031.50;5023417;28;20569;-74
2022/09/19 03:17:05;;;;;;;5.47;2.87;;;;;;;7.67;100.00;100036.81;5025848;28;20292;-73
2022/09/19 03:19:32;;;;;;;5.30;2.63;;;;;;;7.67;100.00;100039.41;5021434;28;20275;-72
2022/09/19 03:21:58;;;;;;;5.03;2.83;;;;;;;7.63;100.00;100051.63;5023435;28;20211;-73
2022/09/19 03:24:28;;;;;;;4.70;2.83;;;;;;;7.63;100.00;100049.03;5038664;28;20219;-73
2022/09/19 03:26:55;;;;;;;2.77;2.53;;;;;;;7.67;100.00;100057.59;5021564;28;20207;-73
2022/09/19 03:29:21;;;;;;;3.73;2.93;;;;;;;7.71;100.00;100059.25;5036705;28;20203;-74
2022/09/19 03:31:53;;;;;;;4.23;2.67;;;;;;;7.63;100.00;100062.00;5021436;28;20246;-73
2022/09/19 03:34:23;;;;;;;6.83;3.00;;;;;;;7.61;100.00;100065.53;5017235;28;20200;-73
2022/09/19 03:36:51;;;;;;;3.67;2.97;;;;;;;7.61;100.00;100078.50;5024570;28;20199;-73
2022/09/19 03:39:22;;;;;;;5.23;3.47;;;;;;;7.61;100.00;100071.56;5022375;28;20211;-72
2022/09/19 03:41:50;;;;;;;4.83;3.13;;;;;;;7.60;100.00;100080.25;5025091;28;20218;-72
2022/09/19 03:44:19;;;;;;;3.70;3.00;;;;;;;7.55;100.00;100082.09;5018305;28;20214;-73
2022/09/19 03:46:46;;;;;;;3.97;2.87;;;;;;;7.52;100.00;100085.59;5025312;28;20199;-73
2022/09/19 03:49:14;;;;;;;4.57;3.23;;;;;;;7.59;100.00;100081.13;5021544;28;20267;-73
2022/09/19 03:51:46;;;;;;;3.77;3.17;;;;;;;7.61;100.00;100088.88;5022578;28;20291;-74
2022/09/19 03:54:12;;;;;;;3.20;2.87;;;;;;;7.62;100.00;100091.44;5021200;28;20288;-73
2022/09/19 03:56:42;;;;;;;4.60;3.03;;;;;;;7.54;100.00;100086.41;5021128;28;20686;-73
2022/09/19 03:59:09;;;;;;;3.70;2.87;;;;;;;7.54;100.00;100093.34;5019088;28;20205;-73
2022/09/19 04:01:39;;;;;;;3.30;2.90;;;;;;;7.51;100.00;100103.78;5023672;28;20249;-74
2022/09/19 04:04:06;;;;;;;7.03;2.60;;;;;;;7.50;100.00;100096.91;5022090;28;20303;-73
2022/09/19 04:06:35;;;;;;;3.10;2.50;;;;;;;7.45;100.00;100093.56;5022739;28;20221;-72
2022/09/19 04:09:04;;;;;;;3.13;2.47;;;;;;;7.53;100.00;100105.47;5024368;28;20670;-73
2022/09/19 04:11:31;;;;;;;4.30;2.47;;;;;;;7.50;100.00;100102.09;5019703;28;20238;-73
2022/09/19 04:13:57;;;;;;;3.10;2.47;;;;;;;7.48;100.00;100106.47;5021508;28;20268;-73
2022/09/19 04:16:25;;;;;;;4.60;2.60;;;;;;;7.52;100.00;100108.09;5016491;28;20202;-73
2022/09/19 04:18:52;;;;;;;2.50;2.30;;;;;;;7.52;100.00;100105.50;5022946;28;20267;-73
2022/09/19 04:21:38;;;;;;;2.83;2.37;;;;;;;7.55;100.00;100108.03;5025633;28;20223;-72
2022/09/19 04:24:13;;;;;;;5.13;2.90;;;;;;;7.61;100.00;100110.47;5035494;28;20199;-73
2022/09/19 04:27:07;;;;;;;3.83;2.67;;;;;;;7.58;100.00;100124.38;5037332;28;20683;-73
2022/09/19 04:29:35;;;;;;;6.87;3.00;;;;;;;7.54;100.00;100122.72;5013350;28;20220;-73
2022/09/19 04:32:02;;;;;;;3.40;2.73;;;;;;;7.55;100.00;100131.38;5015533;28;20222;-73
2022/09/19 04:34:30;;;;;;;5.07;2.77;;;;;;;7.61;100.00;100130.38;5015325;28;20254;-74
2022/09/19 04:36:59;;;;;;;4.10;2.27;;;;;;;7.63;100.00;100136.38;5014244;28;20206;-73
2022/09/19 04:39:27;;;;;;;2.83;2.23;;;;;;;7.67;100.00;100138.03;5019367;28;20730;-72
2022/09/19 04:41:53;;;;;;;6.47;3.30;;;;;;;7.62;100.00;100132.09;5018848;28;20281;-73
2022/09/19 04:44:22;;;;;;;7.03;3.30;;;;;;;7.59;100.00;100131.25;5015951;28;20964;-73
2022/09/19 04:47:28;;;;;;;5.97;2.63;;;;;;;7.57;100.00;100134.78;4959440;28;20208;-73
2022/09/19 04:49:55;;;;;;;2.77;2.20;;;;;;;7.61;100.00;100138.16;4943500;28;20210;-73
2022/09/19 04:52:23;;;;;;;2.50;2.27;;;;;;;7.66;100.00;100144.97;4975135;28;20225;-74
2022/09/19 04:54:52;;;;;;;3.77;2.43;;;;;;;7.69;100.00;100147.50;5020564;28;20196;-72
2022/09/19 04:57:19;;;;;;;5.50;2.70;;;;;;;7.66;100.00;100152.75;5014070;28;20195;-72
2022/09/19 04:59:45;;;;;;;5.33;2.13;;;;;;;7.73;100.00;100148.28;5018786;28;20298;-72
2022/09/19 05:02:18;;;;;;;6.43;2.90;;;;;;;7.71;100.00;100156.09;5013247;28;20321;-73
2022/09/19 05:04:45;;;;;;;4.60;3.17;;;;;;;7.70;100.00;100154.38;5017283;28;20732;-73
2022/09/19 05:07:13;;;;;;;4.00;2.80;;;;;;;7.74;100.00;100160.38;5023454;28;20214;-73
2022/09/19 05:09:41;;;;;;;4.03;2.50;;;;;;;7.75;100.00;100156.88;5022537;28;20281;-73
2022/09/19 05:12:11;;;;;;;7.63;3.13;;;;;;;7.84;100.00;100161.88;5017943;28;20292;-72
2022/09/19 05:14:46;;;;;;;3.67;2.73;;;;;;;7.90;100.00;100166.09;5019204;28;20202;-73
2022/09/19 05:17:13;;;;;;;5.10;2.97;;;;;;;7.92;100.00;100167.75;5022089;28;20231;-72
2022/09/19 05:19:40;;;;;;;5.43;3.17;;;;;;;7.91;100.00;100172.97;5023394;28;20245;-73
2022/09/19 05:22:07;;;;;;;2.70;2.43;;;;;;;7.96;100.00;100173.72;5021808;28;20230;-71
2022/09/19 05:24:37;;;;;;;7.97;3.27;;;;;;;7.99;100.00;100178.00;5022514;28;20665;-73
2022/09/19 05:27:04;;;;;;;4.63;2.70;;;;;;;8.07;100.00;100176.06;5019319;28;20195;-73
2022/09/19 05:29:36;;;;;;;5.83;3.07;;;;;;;8.14;100.00;100181.09;5017006;28;20191;-73
2022/09/19 05:32:04;;;;;;;5.30;3.43;;;;;;;8.08;100.00;100181.22;5040043;28;20277;-73
2022/09/19 05:35:00;;;;;;;4.07;3.30;;;;;;;8.15;100.00;100180.19;5013977;28;20684;-73
2022/09/19 05:37:41;;;;;;;4.50;2.73;;;;;;;8.15;100.00;100190.59;5017611;28;20223;-72
2022/09/19 05:40:18;;;;;;;5.90;2.90;;;;;;;8.20;100.00;100182.69;5018804;28;20211;-72
2022/09/19 05:42:51;;;;;;;5.83;3.30;;;;;;;8.18;100.00;100178.41;5013291;28;20231;-72
2022/09/19 05:45:20;;;;;;;5.83;3.03;;;;;;;8.27;100.00;100179.06;5015196;28;20305;-72
2022/09/19 05:47:49;;;;;;;3.50;2.67;;;;;;;8.22;100.00;100186.13;5020607;28;20192;-72
2022/09/19 05:50:15;;;;;;;2.93;2.27;;;;;;;8.23;100.00;100184.34;5019635;28;20207;-73
2022/09/19 05:55:29;;;;;;;4.23;2.37;;;;;;;8.24;100.00;100188.69;5019124;28;20192;-73
2022/09/19 05:58:06;;;;;;;5.93;2.63;;;;;;;8.26;100.00;100184.28;5024199;28;20201;-73
2022/09/19 06:00:34;;;;;;;3.07;2.77;;;;;;;8.31;100.00;100198.03;5022601;28;20219;-72
2022/09/19 06:03:02;;;;;;;5.40;2.97;;;;;;;8.39;100.00;100193.53;5021979;28;20196;-73
2022/09/19 06:05:37;;;;;;;4.57;2.80;;;;;;;8.33;100.00;100194.50;5023418;28;20634;-72
2022/09/19 06:08:04;;;;;;;5.60;2.60;;;;;;;8.29;100.00;100203.25;5038204;28;20201;-73
2022/09/19 06:10:34;;;;;;;6.10;2.67;;;;;;;8.32;100.00;100203.19;5018942;28;20207;-72
2022/09/19 06:13:01;;;;;;;4.90;3.30;;;;;;;8.33;100.00;100212.69;5022756;28;20608;-72
2022/09/19 06:15:28;;;;;;;3.53;2.53;;;;;;;8.33;100.00;100210.06;5018808;28;20517;-72
2022/09/19 06:17:59;;;;;;;4.17;3.13;;;;;;;8.44;100.00;100207.28;5014173;28;20227;-72
2022/09/19 06:20:46;;;;;;;4.30;3.00;;;;;;;8.49;100.00;100209.75;5036415;28;20365;-73
2022/09/19 06:23:21;;;;;;;5.40;2.97;;;;;;;8.47;100.00;100202.00;5021927;28;20203;-73
2022/09/19 06:25:48;;;;;;;3.07;2.57;;;;;;;8.55;100.00;100206.16;5022101;28;20215;-73
2022/09/19 06:28:15;;;;;;;3.60;2.63;;;;;;;8.62;100.00;100210.28;5021016;28;20277;-73
2022/09/19 06:30:49;;;;;;;6.10;2.87;;;;;;;8.60;100.00;100210.38;5021366;28;20219;-73
2022/09/19 06:33:23;;;;;;;3.23;2.77;;;;;;;8.65;100.00;100213.72;5019895;28;20277;-72
2022/09/19 06:35:57;;;;;;;4.33;2.80;;;;;;;8.69;100.00;100211.88;5021147;28;20899;-72
2022/09/19 06:38:26;;;;;;;3.73;2.93;;;;;;;8.66;100.00;100215.41;5012594;28;20572;-73
2022/09/19 06:40:54;;;;;;;5.10;3.10;;;;;;;8.66;100.00;100218.00;5009217;28;20230;-72
2022/09/19 06:43:30;;;;;;;6.30;3.50;;;;;;;8.71;100.00;100223.94;5010848;28;20369;-72
2022/09/19 06:46:27;;;;;;;4.33;2.93;;;;;;;8.75;100.00;100229.91;5011534;28;20229;-73
2022/09/19 06:49:09;;;;;;;5.77;2.90;;;;;;;8.74;100.00;100232.53;5030601;28;20737;-73
2022/09/19 06:51:41;;;;;;;8.30;3.20;;;;;;;8.82;100.00;100231.47;5021921;28;20627;-73
2022/09/19 06:54:09;;;;;;;4.73;3.43;;;;;;;8.89;100.00;100224.38;5023727;28;20204;-72
2022/09/19 06:56:35;;;;;;;8.77;3.73;;;;;;;8.85;100.00;100238.34;5019507;28;20246;-72
2022/09/19 06:59:05;;;;;;;4.97;3.40;;;;;;;8.94;100.00;100235.50;5026365;28;20192;-73
2022/09/19 07:01:33;;;;;;;5.33;3.43;;;;;;;8.99;100.00;100235.38;5023608;28;20643;-73
2022/09/19 07:04:00;;;;;;;5.17;3.97;;;;;;;8.88;100.00;100239.13;5029061;28;20282;-73
2022/09/19 07:06:42;;;;;;;5.37;3.37;;;;;;;8.93;100.00;100243.34;5029117;28;20239;-72
2022/09/19 07:09:13;;;;;;;5.97;3.63;;;;;;;8.94;100.00;100256.31;5030942;28;20592;-73
2022/09/19 07:11:39;;;;;;;5.77;3.30;;;;;;;8.88;100.00;100261.66;5031196;28;20240;-73
2022/09/19 07:14:07;;;;;;;5.10;4.07;;;;;;;8.95;100.00;100254.56;5030825;28;20203;-73
2022/09/19 07:16:33;;;;;;;5.07;3.73;;;;;;;8.96;100.00;100258.88;5027548;28;20196;-72
2022/09/19 07:19:00;;;;;;;11.53;3.80;;;;;;;9.00;100.00;100271.75;5028832;28;20203;-72
2022/09/19 07:21:54;;;;;;;8.70;3.70;;;;;;;9.00;100.00;100269.13;5024543;28;20362;-73
2022/09/19 07:24:52;;;;;;;5.57;4.20;;;;;;;9.06;100.00;100266.41;5045097;28;20616;-72
2022/09/19 07:27:34;;;;;;;7.13;4.20;;;;;;;9.02;100.00;100269.97;5022671;28;20212;-71
2022/09/19 07:30:01;;;;;;;9.00;4.10;;;;;;;9.06;100.00;100275.94;5026707;28;20203;-72
2022/09/19 07:32:29;;;;;;;7.57;3.67;;;;;;;9.13;100.00;100271.41;5022324;28;20258;-72
2022/09/19 07:34:56;;;;;;;5.67;3.87;;;;;;;9.16;100.00;100285.19;5024193;28;20251;-73
2022/09/19 07:37:25;;;;;;;11.77;4.60;;;;;;;9.20;100.00;100275.56;5025777;28;20201;-72
2022/09/19 07:40:02;;;;;;;6.90;3.80;;;;;;;9.33;100.00;100283.94;5021364;28;20302;-72
2022/09/19 07:42:41;;;;;;;8.20;3.93;;;;;;;9.33;100.00;100276.97;5042862;28;20392;-73
2022/09/19 07:45:45;;;;;;;4.87;3.83;;;;;;;9.44;100.00;100279.28;5010696;28;20298;-72
2022/09/19 07:48:32;;;;;;;10.73;4.17;;;;;;;9.53;100.00;100283.38;5026869;28;20213;-72
2022/09/19 07:51:20;;;;;;;8.67;4.00;;;;;;;9.73;100.00;100286.31;5026600;28;20225;-72
2022/09/19 07:53:49;;;;;;;6.47;4.10;;;;;;;9.71;100.00;100298.50;5024162;28;20200;-73
2022/09/19 07:56:16;;;;;;;5.80;3.53;;;;;;;9.73;100.00;100307.13;5019174;28;20204;-73
2022/09/19 07:58:43;;;;;;;5.97;4.17;;;;;;;9.59;100.00;100304.91;5020111;28;20331;-73
2022/09/19 08:01:09;;;;;;;5.10;3.77;;;;;;;9.62;100.00;100310.03;5020972;28;20273;-72
2022/09/19 08:03:55;;;;;;;6.23;3.70;;;;;;;9.71;100.00;100314.13;5037695;28;20527;-73
2022/09/19 08:06:33;;;;;;;6.90;4.17;;;;;;;9.79;100.00;100304.34;5020157;28;20710;-72
2022/09/19 08:09:03;;;;;;;4.93;3.70;;;;;;;9.90;100.00;100309.25;5025510;28;20204;-73
2022/09/19 08:11:48;;;;;;;10.60;4.00;;;;;;;9.94;100.00;100323.06;5038949;28;20269;-73
2022/09/19 08:14:15;;;;;;;7.43;4.30;;;;;;;10.04;100.00;100322.75;5021553;28;20288;-72
2022/09/19 08:16:43;;;;;;;6.07;4.37;;;;;;;10.02;100.00;100337.53;5023984;28;20257;-72
2022/09/19 08:19:10;;;;;;;6.47;4.07;;;;;;;10.03;100.00;100328.00;5022864;28;20206;-73
2022/09/19 08:21:37;;;;;;;8.23;4.53;;;;;;;9.91;100.00;100336.16;5023863;28;20788;-72
2022/09/19 08:24:07;;;;;;;5.77;4.00;;;;;;;9.95;100.00;100333.41;5025908;28;20306;-72
2022/09/19 08:26:34;;;;;;;4.97;3.57;;;;;;;9.95;100.00;100335.16;5018011;28;20281;-73
2022/09/19 08:29:02;;;;;;;6.30;3.70;;;;;;;9.91;100.00;100336.16;5026548;28;20225;-72
2022/09/19 08:31:32;;;;;;;5.83;3.67;;;;;;;9.93;100.00;100340.41;5024954;28;20696;-71
2022/09/19 08:34:00;;;;;;;7.93;4.20;;;;;;;9.95;100.00;100343.81;5021406;28;20718;-72
2022/09/19 08:36:27;;;;;;;7.20;4.60;;;;;;;10.09;100.00;100346.03;5018955;28;20217;-72
2022/09/19 08:38:55;;;;;;;4.97;3.70;;;;;;;10.05;100.00;100349.63;5029177;28;20275;-72
2022/09/19 08:41:45;;;;;;;6.13;4.03;;;;;;;10.15;100.00;100342.41;5023527;28;20250;-72
2022/09/19 08:44:19;;;;;;;4.77;3.63;;;;;;;10.17;100.00;100351.06;5022639;28;20476;-72
2022/09/19 08:46:51;;;;;;;6.27;3.53;;;;;;;10.19;100.00;100357.06;5025534;28;20372;-72
2022/09/19 08:49:23;;;;;;;5.37;3.57;;;;;;;10.18;100.00;100360.56;5030499;28;20288;-72
2022/09/19 08:51:55;;;;;;;5.17;2.90;;;;;;;10.17;100.00;100362.31;5025059;28;20230;-72
2022/09/19 08:54:30;;;;;;;4.80;3.00;;;;;;;10.16;100.00;100362.34;5021347;28;20197;-71
2022/09/19 08:56:59;;;;;;;4.77;2.90;;;;;;;10.17;100.00;100364.91;5024586;28;20583;-72
2022/09/19 08:59:33;;;;;;;3.37;2.60;;;;;;;10.18;100.00;100377.06;5024576;28;20194;-72
2022/09/19 09:02:17;;;;;;;3.00;2.60;;;;;;;10.22;100.00;100370.00;5042076;28;20278;-72
2022/09/19 09:05:03;;;;;;;3.00;2.70;;;;;;;10.40;100.00;100373.88;5044525;28;20229;-72
2022/09/19 09:07:40;;;;;;;4.57;2.70;;;;;;;10.40;100.00;100377.31;5026817;28;20302;-71
2022/09/19 09:10:43;;;;;;;4.83;3.10;;;;;;;10.40;100.00;100379.06;5024056;28;20280;-72
2022/09/19 09:13:28;;;;;;;3.10;2.30;;;;;;;10.38;100.00;100381.72;5023689;28;20246;-72
2022/09/19 09:16:03;;;;;;;4.30;2.77;;;;;;;10.36;100.00;100383.53;5020762;28;20188;-72
2022/09/19 09:18:54;;;;;;;4.40;2.87;;;;;;;10.33;100.00;100387.97;5028737;28;20201;-72
2022/09/19 09:21:28;;;;;;;3.17;2.70;;;;;;;10.33;100.00;100387.97;5018972;28;20234;-71
2022/09/19 09:24:00;;;;;;;5.67;2.63;;;;;;;10.40;100.00;100385.13;5018813;28;20580;-72
2022/09/19 09:26:40;;;;;;;2.77;2.37;;;;;;;10.46;100.00;100378.88;5025284;28;20229;-72
2022/09/19 09:29:22;;;;;;;3.60;2.50;;;;;;;10.46;100.00;100388.47;5036140;28;20215;-72
2022/09/19 09:32:05;;;;;;;3.13;2.40;;;;;;;10.45;100.00;100390.22;5021774;28;20305;-71
2022/09/19 09:34:40;;;;;;;5.40;2.53;;;;;;;10.51;100.00;100387.41;5038020;28;20656;-72
2022/09/19 09:37:20;;;;;;;3.17;2.23;;;;;;;10.58;100.00;100386.34;5019397;28;20201;-72
2022/09/19 09:40:00;;;;;;;3.70;2.57;;;;;;;10.66;100.00;100399.16;5025892;28;20294;-72
2022/09/19 09:42:37;;;;;;;3.37;2.73;;;;;;;10.72;100.00;100393.75;5040567;28;20225;-71
2022/09/19 09:45:20;;;;;;;3.70;2.70;;;;;;;10.82;100.00;100390.84;5027349;28;20690;-72
2022/09/19 09:47:56;;;;;;;6.00;2.87;;;;;;;10.89;100.00;100395.00;5023973;28;20232;-71
2022/09/19 09:50:40;;;;;;;4.37;2.70;;;;;;;10.98;100.00;100390.34;5020200;28;20210;-72
2022/09/19 09:53:17;;;;;;;2.80;2.60;;;;;;;11.04;100.00;100399.72;5022383;28;20198;-72
2022/09/19 09:58:50;;;;;;;3.10;2.80;;;;;;;11.11;100.00;100398.63;5018401;28;20207;-72
2022/09/19 10:04:26;;;;;;;3.47;2.43;;;;;;;11.39;100.00;100408.16;5022348;28;20210;-72
2022/09/19 10:07:12;;;;;;;4.00;2.83;;;;;;;11.54;100.00;100393.78;5023295;28;20703;-72
2022/09/19 10:09:46;;;;;;;3.03;2.70;;;;;;;11.81;100.00;100404.16;5022949;28;20210;-71
2022/09/19 10:12:23;;;;;;;3.10;2.43;;;;;;;11.87;100.00;100398.72;5022079;28;20225;-72
2022/09/19 10:14:54;;;;;;;4.73;2.30;;;;;;;12.00;100.00;100401.81;5020070;28;20863;-72
2022/09/19 10:17:41;;;;;;;2.00;1.80;;;;;;;12.17;100.00;100407.28;5026550;28;20683;-71
2022/09/19 10:20:19;;;;;;;1.80;1.57;;;;;;;12.12;100.00;100401.38;5039866;28;20206;-71
2022/09/19 10:22:46;;;;;;;2.70;1.30;;;;;;;12.01;100.00;100404.34;5021632;28;20217;-72
2022/09/19 10:25:16;;;;;;;1.40;1.30;;;;;;;12.10;100.00;100411.88;5023320;28;20206;-71
2022/09/19 10:27:45;;;;;;;5.67;1.30;;;;;;;12.12;100.00;100415.28;5038328;28;20276;-72
2022/09/19 10:30:37;;;;;;;0.90;0.90;;;;;;;12.12;100.00;100414.44;5015539;28;20227;-72
2022/09/19 10:33:25;;;;;;;0.80;0.80;;;;;;;12.26;100.00;100413.91;5020508;28;20571;-72
2022/09/19 10:36:05;;;;;;;2.50;0.93;;;;;;;12.45;100.00;100414.09;5025087;28;20252;-71
2022/09/19 10:38:47;;;;;;;1.80;0.90;;;;;;;12.62;100.00;100423.94;5020880;28;20196;-72
2022/09/19 10:41:14;;;;;;;1.77;1.10;;;;;;;12.62;100.00;100421.31;5036579;28;20231;-71
2022/09/19 10:43:47;;;;;;;3.60;1.00;;;;;;;12.66;100.00;100413.28;5024762;28;20192;-71
2022/09/19 10:46:20;;;;;;;1.07;0.97;;;;;;;12.57;100.00;100423.25;5022790;28;20215;-71
2022/09/19 10:48:57;;;;;;;1.10;1.00;;;;;;;12.66;100.00;100417.66;5026886;28;20197;-72
2022/09/19 10:51:32;;;;;;;3.00;0.90;;;;;;;12.54;100.00;100419.00;5021285;28;20220;-71
2022/09/19 10:54:11;;;;;;;0.80;0.80;;;;;;;12.53;100.00;100421.66;5039433;28;20579;-71
2022/09/19 10:56:40;;;;;;;3.10;1.20;;;;;;;12.54;100.00;100416.38;5040350;28;20205;-73
2022/09/19 10:59:24;;;;;;;1.00;1.00;;;;;;;12.64;100.00;100417.72;5025460;28;21142;-72
2022/09/19 11:02:19;;;;;;;2.07;1.10;;;;;;;12.66;100.00;100413.28;5025854;28;20230;-71
2022/09/19 11:04:59;;;;;;;0.90;0.90;;;;;;;12.65;100.00;100422.03;5023485;28;20191;-70
2022/09/19 11:07:29;;;;;;;1.20;0.93;;;;;;;12.65;100.00;100421.19;5028557;28;20244;-71
2022/09/19 11:09:59;;;;;;;0.70;0.70;;;;;;;12.71;100.00;100417.50;5025631;28;20208;-71
2022/09/19 11:12:30;;;;;;;1.00;0.90;;;;;;;12.77;100.00;100417.25;5025008;28;20229;-71
2022/09/19 11:14:57;;;;;;;0.80;0.80;;;;;;;12.95;100.00;100421.78;5029400;28;20195;-71
2022/09/19 11:17:55;;;;;;;1.63;0.90;;;;;;;13.08;100.00;100415.13;5021432;28;20195;-71
2022/09/19 11:20:49;;;;;;;0.97;0.97;;;;;;;13.02;100.00;100417.16;5021301;28;20223;-71
2022/09/19 11:23:44;;;;;;;2.43;0.70;;;;;;;12.91;100.00;100428.06;5021362;28;20468;-71
2022/09/19 11:26:26;;;;;;;0.90;0.90;;;;;;;12.82;100.00;100410.06;5022434;28;20234;-71
2022/09/19 11:29:06;;;;;;;2.03;0.80;;;;;;;12.94;100.00;100416.59;5021386;28;20196;-71
2022/09/19 11:31:43;;;;;;;1.23;1.00;;;;;;;13.35;100.00;100420.22;5019931;28;20217;-71
2022/09/19 11:34:19;;;;;;;1.83;0.90;;;;;;;13.52;100.00;100432.59;5024025;28;20255;-71
2022/09/19 11:37:08;;;;;;;0.50;0.50;;;;;;;13.59;100.00;100431.41;5026905;28;20206;-72
2022/09/19 11:39:51;;;;;;;0.60;0.60;;;;;;;13.74;100.00;100431.72;5037627;28;20264;-71
2022/09/19 11:42:31;;;;;;;0.70;0.63;;;;;;;13.81;100.00;100441.03;5037095;28;20696;-71
2022/09/19 11:45:10;;;;;;;1.27;0.67;;;;;;;13.97;100.00;100438.59;5027747;28;20202;-71
2022/09/19 11:48:01;;;;;;;0.70;0.70;;;;;;;14.01;100.00;100448.88;5022951;28;20204;-71
2022/09/19 11:50:40;;;;;;;0.60;0.60;;;;;;;14.06;100.00;100450.47;5026462;28;20306;-71
2022/09/19 11:53:20;;;;;;;0.63;0.63;;;;;;;14.22;100.00;100437.53;5024969;28;20193;-71
2022/09/19 11:56:18;;;;;;;0.70;0.70;;;;;;;14.11;100.00;100433.59;5025108;28;20287;-71
2022/09/19 11:58:54;;;;;;;0.60;0.60;;;;;;;14.15;100.00;100435.16;5036888;28;20206;-71
2022/09/19 12:01:37;;;;;;;0.50;0.50;;;;;;;14.05;100.00;100436.47;5024838;28;20234;-71
2022/09/19 12:04:19;;;;;;;1.27;0.90;;;;;;;14.28;100.00;100432.00;5022539;28;20635;-71
2022/09/19 12:07:04;;;;;;;1.20;0.63;;;;;;;14.43;100.00;100428.69;5022167;28;20221;-71
2022/09/19 12:09:36;;;;;;;0.50;0.50;;;;;;;14.77;100.00;100430.66;5021814;28;20205;-71